sensor_id;sensor_type;location;lat;lon;timestamp;P1;durP1;ratioP1;P2;durP2;ratioP2
4961;SDS011;2496;52.468;13.342;2024-03-22T00:00:38;21.90;;;11.50;;
4961;SDS011;2496;52.468;13.342;2024-03-22T00:03:05;15.73;;;11.87;;
4961;SDS011;2496;52.468;13.342;2024-03-22T00:05:32;19.10;;;11.63;;
4961;SDS011;2496;52.468;13.342;2024-03-22T00:07:59;14.83;;;11.43;;
4961;SDS011;2496;52.468;13.342;2024-03-22T00:10:25;16.60;;;11.77;;
4961;SDS011;2496;52.468;13.342;2024-03-22T00:12:52;16.73;;;11.00;;
4961;SDS011;2496;52.468;13.342;2024-03-22T00:15:18;19.03;;;11.97;;
4961;SDS011;2496;52.468;13.342;2024-03-22T00:17:45;16.00;;;11.50;;
4961;SDS011;2496;52.468;13.342;2024-03-22T00:20:11;19.20;;;12.33;;
4961;SDS011;2496;52.468;13.342;2024-03-22T00:22:39;16.30;;;12.27;;
4961;SDS011;2496;52.468;13.342;2024-03-22T00:25:05;17.33;;;12.93;;
4961;SDS011;2496;52.468;13.342;2024-03-22T00:27:33;19.10;;;12.40;;
4961;SDS011;2496;52.468;13.342;2024-03-22T00:29:59;17.17;;;12.50;;
4961;SDS011;2496;52.468;13.342;2024-03-22T00:32:26;20.30;;;11.73;;
4961;SDS011;2496;52.468;13.342;2024-03-22T00:34:52;20.50;;;13.00;;
4961;SDS011;2496;52.468;13.342;2024-03-22T00:37:19;18.20;;;12.90;;
4961;SDS011;2496;52.468;13.342;2024-03-22T00:39:46;18.10;;;12.50;;
4961;SDS011;2496;52.468;13.342;2024-03-22T00:42:13;17.93;;;12.23;;
4961;SDS011;2496;52.468;13.342;2024-03-22T00:44:39;22.63;;;13.10;;
4961;SDS011;2496;52.468;13.342;2024-03-22T00:47:06;17.73;;;12.60;;
4961;SDS011;2496;52.468;13.342;2024-03-22T00:49:32;19.20;;;12.87;;
4961;SDS011;2496;52.468;13.342;2024-03-22T00:51:59;17.67;;;11.97;;
4961;SDS011;2496;52.468;13.342;2024-03-22T00:54:25;18.37;;;12.50;;
4961;SDS011;2496;52.468;13.342;2024-03-22T00:56:54;18.13;;;12.77;;
4961;SDS011;2496;52.468;13.342;2024-03-22T00:59:20;15.70;;;12.07;;
4961;SDS011;2496;52.468;13.342;2024-03-22T01:01:47;20.30;;;13.80;;
4961;SDS011;2496;52.468;13.342;2024-03-22T01:04:13;21.53;;;13.13;;
4961;SDS011;2496;52.468;13.342;2024-03-22T01:06:40;19.40;;;13.30;;
4961;SDS011;2496;52.468;13.342;2024-03-22T01:09:06;22.63;;;13.17;;
4961;SDS011;2496;52.468;13.342;2024-03-22T01:11:33;20.73;;;13.77;;
4961;SDS011;2496;52.468;13.342;2024-03-22T01:14:01;26.40;;;14.57;;
4961;SDS011;2496;52.468;13.342;2024-03-22T01:16:28;21.37;;;13.33;;
4961;SDS011;2496;52.468;13.342;2024-03-22T01:18:54;20.10;;;14.40;;
4961;SDS011;2496;52.468;13.342;2024-03-22T01:21:21;20.80;;;12.93;;
4961;SDS011;2496;52.468;13.342;2024-03-22T01:23:50;21.63;;;14.00;;
4961;SDS011;2496;52.468;13.342;2024-03-22T01:26:17;22.40;;;13.43;;
4961;SDS011;2496;52.468;13.342;2024-03-22T01:28:43;22.43;;;13.97;;
4961;SDS011;2496;52.468;13.342;2024-03-22T01:31:11;22.73;;;14.27;;
4961;SDS011;2496;52.468;13.342;2024-03-22T01:33:37;22.70;;;14.40;;
4961;SDS011;2496;52.468;13.342;2024-03-22T01:36:04;21.70;;;13.50;;
4961;SDS011;2496;52.468;13.342;2024-03-22T01:38:31;23.30;;;14.60;;
4961;SDS011;2496;52.468;13.342;2024-03-22T01:40:57;23.07;;;14.83;;
4961;SDS011;2496;52.468;13.342;2024-03-22T01:43:23;24.73;;;16.10;;
4961;SDS011;2496;52.468;13.342;2024-03-22T01:45:50;23.30;;;14.10;;
4961;SDS011;2496;52.468;13.342;2024-03-22T01:48:18;23.70;;;14.77;;
4961;SDS011;2496;52.468;13.342;2024-03-22T01:50:45;23.07;;;14.17;;
4961;SDS011;2496;52.468;13.342;2024-03-22T01:53:11;22.23;;;13.50;;
4961;SDS011;2496;52.468;13.342;2024-03-22T01:55:38;25.27;;;15.67;;
4961;SDS011;2496;52.468;13.342;2024-03-22T01:58:04;23.70;;;13.90;;
4961;SDS011;2496;52.468;13.342;2024-03-22T02:00:32;23.67;;;14.37;;
4961;SDS011;2496;52.468;13.342;2024-03-22T02:02:58;24.23;;;14.60;;
4961;SDS011;2496;52.468;13.342;2024-03-22T02:05:27;23.53;;;13.87;;
4961;SDS011;2496;52.468;13.342;2024-03-22T02:07:53;23.10;;;14.47;;
4961;SDS011;2496;52.468;13.342;2024-03-22T02:10:20;25.03;;;13.40;;
4961;SDS011;2496;52.468;13.342;2024-03-22T02:12:47;20.53;;;13.03;;
4961;SDS011;2496;52.468;13.342;2024-03-22T02:15:14;21.07;;;13.13;;
4961;SDS011;2496;52.468;13.342;2024-03-22T02:17:40;22.50;;;13.67;;
4961;SDS011;2496;52.468;13.342;2024-03-22T02:20:08;24.00;;;14.90;;
4961;SDS011;2496;52.468;13.342;2024-03-22T02:22:36;19.47;;;12.30;;
4961;SDS011;2496;52.468;13.342;2024-03-22T02:25:05;22.27;;;14.00;;
4961;SDS011;2496;52.468;13.342;2024-03-22T02:27:33;20.83;;;13.33;;
4961;SDS011;2496;52.468;13.342;2024-03-22T02:30:00;27.60;;;14.30;;
4961;SDS011;2496;52.468;13.342;2024-03-22T02:32:27;23.73;;;14.20;;
4961;SDS011;2496;52.468;13.342;2024-03-22T02:34:54;23.93;;;13.67;;
4961;SDS011;2496;52.468;13.342;2024-03-22T02:37:20;22.37;;;13.47;;
4961;SDS011;2496;52.468;13.342;2024-03-22T02:39:47;24.37;;;12.90;;
4961;SDS011;2496;52.468;13.342;2024-03-22T02:42:14;20.20;;;12.00;;
4961;SDS011;2496;52.468;13.342;2024-03-22T02:44:41;24.27;;;13.80;;
4961;SDS011;2496;52.468;13.342;2024-03-22T02:47:08;21.90;;;13.07;;
4961;SDS011;2496;52.468;13.342;2024-03-22T02:49:37;24.00;;;13.63;;
4961;SDS011;2496;52.468;13.342;2024-03-22T02:52:04;27.23;;;13.73;;
4961;SDS011;2496;52.468;13.342;2024-03-22T02:54:31;22.50;;;14.00;;
4961;SDS011;2496;52.468;13.342;2024-03-22T02:56:57;21.50;;;13.30;;
4961;SDS011;2496;52.468;13.342;2024-03-22T02:59:26;20.50;;;13.67;;
4961;SDS011;2496;52.468;13.342;2024-03-22T03:01:52;20.87;;;12.60;;
4961;SDS011;2496;52.468;13.342;2024-03-22T03:04:20;21.30;;;12.73;;
4961;SDS011;2496;52.468;13.342;2024-03-22T03:06:46;24.47;;;13.60;;
4961;SDS011;2496;52.468;13.342;2024-03-22T03:09:13;21.50;;;13.33;;
4961;SDS011;2496;52.468;13.342;2024-03-22T03:11:39;21.00;;;12.93;;
4961;SDS011;2496;52.468;13.342;2024-03-22T03:14:06;19.90;;;13.23;;
4961;SDS011;2496;52.468;13.342;2024-03-22T03:16:33;25.27;;;13.37;;
4961;SDS011;2496;52.468;13.342;2024-03-22T03:19:00;21.47;;;12.70;;
4961;SDS011;2496;52.468;13.342;2024-03-22T03:21:26;22.50;;;12.13;;
4961;SDS011;2496;52.468;13.342;2024-03-22T03:23:53;25.03;;;14.97;;
4961;SDS011;2496;52.468;13.342;2024-03-22T03:26:19;23.70;;;13.70;;
4961;SDS011;2496;52.468;13.342;2024-03-22T03:28:46;25.60;;;13.57;;
4961;SDS011;2496;52.468;13.342;2024-03-22T03:31:12;23.47;;;12.37;;
4961;SDS011;2496;52.468;13.342;2024-03-22T03:33:44;31.33;;;12.70;;
4961;SDS011;2496;52.468;13.342;2024-03-22T03:36:10;27.60;;;13.47;;
4961;SDS011;2496;52.468;13.342;2024-03-22T03:38:37;23.17;;;12.97;;
4961;SDS011;2496;52.468;13.342;2024-03-22T03:41:03;23.87;;;12.90;;
4961;SDS011;2496;52.468;13.342;2024-03-22T03:43:30;19.43;;;11.50;;
4961;SDS011;2496;52.468;13.342;2024-03-22T03:45:56;24.40;;;13.30;;
4961;SDS011;2496;52.468;13.342;2024-03-22T03:48:23;22.00;;;12.90;;
4961;SDS011;2496;52.468;13.342;2024-03-22T03:50:54;23.47;;;12.30;;
4961;SDS011;2496;52.468;13.342;2024-03-22T03:53:24;19.90;;;12.40;;
4961;SDS011;2496;52.468;13.342;2024-03-22T03:55:50;20.13;;;12.07;;
4961;SDS011;2496;52.468;13.342;2024-03-22T03:58:17;24.33;;;12.70;;
4961;SDS011;2496;52.468;13.342;2024-03-22T04:00:43;21.37;;;12.37;;
4961;SDS011;2496;52.468;13.342;2024-03-22T04:03:10;18.50;;;11.20;;
4961;SDS011;2496;52.468;13.342;2024-03-22T04:05:35;27.87;;;13.43;;
4961;SDS011;2496;52.468;13.342;2024-03-22T04:08:04;21.80;;;12.00;;
4961;SDS011;2496;52.468;13.342;2024-03-22T04:10:31;20.97;;;11.30;;
4961;SDS011;2496;52.468;13.342;2024-03-22T04:12:58;18.10;;;11.27;;
4961;SDS011;2496;52.468;13.342;2024-03-22T04:15:25;20.83;;;11.70;;
4961;SDS011;2496;52.468;13.342;2024-03-22T04:17:56;21.73;;;12.40;;
4961;SDS011;2496;52.468;13.342;2024-03-22T04:20:22;24.70;;;12.77;;
4961;SDS011;2496;52.468;13.342;2024-03-22T04:22:49;20.80;;;11.33;;
4961;SDS011;2496;52.468;13.342;2024-03-22T04:25:18;22.80;;;13.10;;
4961;SDS011;2496;52.468;13.342;2024-03-22T04:27:45;24.67;;;11.73;;
4961;SDS011;2496;52.468;13.342;2024-03-22T04:30:11;23.27;;;12.17;;
4961;SDS011;2496;52.468;13.342;2024-03-22T04:32:38;19.47;;;11.67;;
4961;SDS011;2496;52.468;13.342;2024-03-22T04:35:05;18.50;;;11.40;;
4961;SDS011;2496;52.468;13.342;2024-03-22T04:40:22;19.57;;;11.23;;
4961;SDS011;2496;52.468;13.342;2024-03-22T04:42:49;20.23;;;11.50;;
4961;SDS011;2496;52.468;13.342;2024-03-22T04:45:15;17.97;;;10.43;;
4961;SDS011;2496;52.468;13.342;2024-03-22T04:47:42;17.50;;;10.63;;
4961;SDS011;2496;52.468;13.342;2024-03-22T04:50:09;20.37;;;11.47;;
4961;SDS011;2496;52.468;13.342;2024-03-22T04:52:38;18.57;;;10.80;;
4961;SDS011;2496;52.468;13.342;2024-03-22T04:55:04;17.30;;;11.50;;
4961;SDS011;2496;52.468;13.342;2024-03-22T04:57:33;19.63;;;11.40;;
4961;SDS011;2496;52.468;13.342;2024-03-22T05:00:00;17.47;;;10.60;;
4961;SDS011;2496;52.468;13.342;2024-03-22T05:02:26;18.67;;;10.63;;
4961;SDS011;2496;52.468;13.342;2024-03-22T05:04:53;20.37;;;11.40;;
4961;SDS011;2496;52.468;13.342;2024-03-22T05:07:19;17.17;;;10.77;;
4961;SDS011;2496;52.468;13.342;2024-03-22T05:09:46;15.93;;;10.30;;
4961;SDS011;2496;52.468;13.342;2024-03-22T05:12:11;18.77;;;11.17;;
4961;SDS011;2496;52.468;13.342;2024-03-22T05:14:40;19.13;;;11.43;;
4961;SDS011;2496;52.468;13.342;2024-03-22T05:17:06;17.67;;;12.10;;
4961;SDS011;2496;52.468;13.342;2024-03-22T05:19:33;17.87;;;12.07;;
4961;SDS011;2496;52.468;13.342;2024-03-22T05:21:59;15.93;;;10.43;;
4961;SDS011;2496;52.468;13.342;2024-03-22T05:24:25;17.70;;;11.93;;
4961;SDS011;2496;52.468;13.342;2024-03-22T05:26:52;22.50;;;11.57;;
4961;SDS011;2496;52.468;13.342;2024-03-22T05:29:19;23.23;;;12.70;;
4961;SDS011;2496;52.468;13.342;2024-03-22T05:31:47;22.17;;;12.30;;
4961;SDS011;2496;52.468;13.342;2024-03-22T05:34:16;21.53;;;12.90;;
4961;SDS011;2496;52.468;13.342;2024-03-22T05:36:42;21.50;;;12.73;;
4961;SDS011;2496;52.468;13.342;2024-03-22T05:39:09;28.17;;;14.43;;
4961;SDS011;2496;52.468;13.342;2024-03-22T05:41:36;26.23;;;12.53;;
4961;SDS011;2496;52.468;13.342;2024-03-22T05:44:02;20.73;;;11.80;;
4961;SDS011;2496;52.468;13.342;2024-03-22T05:46:29;23.43;;;13.40;;
4961;SDS011;2496;52.468;13.342;2024-03-22T05:48:57;22.90;;;12.13;;
4961;SDS011;2496;52.468;13.342;2024-03-22T05:51:24;19.83;;;12.20;;
4961;SDS011;2496;52.468;13.342;2024-03-22T05:53:50;23.40;;;11.87;;
4961;SDS011;2496;52.468;13.342;2024-03-22T05:56:17;18.00;;;11.40;;
4961;SDS011;2496;52.468;13.342;2024-03-22T05:58:43;32.20;;;13.07;;
4961;SDS011;2496;52.468;13.342;2024-03-22T06:01:10;21.13;;;12.77;;
4961;SDS011;2496;52.468;13.342;2024-03-22T06:03:36;23.07;;;12.50;;
4961;SDS011;2496;52.468;13.342;2024-03-22T06:06:05;22.63;;;12.03;;
4961;SDS011;2496;52.468;13.342;2024-03-22T06:08:31;21.30;;;13.20;;
4961;SDS011;2496;52.468;13.342;2024-03-22T06:10:59;22.97;;;12.67;;
4961;SDS011;2496;52.468;13.342;2024-03-22T06:13:26;24.73;;;13.20;;
4961;SDS011;2496;52.468;13.342;2024-03-22T06:15:53;22.13;;;13.30;;
4961;SDS011;2496;52.468;13.342;2024-03-22T06:18:19;22.33;;;13.13;;
4961;SDS011;2496;52.468;13.342;2024-03-22T06:20:46;20.50;;;11.77;;
4961;SDS011;2496;52.468;13.342;2024-03-22T06:23:13;27.30;;;13.97;;
4961;SDS011;2496;52.468;13.342;2024-03-22T06:25:40;22.80;;;12.50;;
4961;SDS011;2496;52.468;13.342;2024-03-22T06:28:06;21.67;;;12.63;;
4961;SDS011;2496;52.468;13.342;2024-03-22T06:30:33;21.53;;;12.73;;
4961;SDS011;2496;52.468;13.342;2024-03-22T06:32:59;26.53;;;13.43;;
4961;SDS011;2496;52.468;13.342;2024-03-22T06:35:26;23.30;;;13.43;;
4961;SDS011;2496;52.468;13.342;2024-03-22T06:37:51;19.23;;;12.13;;
4961;SDS011;2496;52.468;13.342;2024-03-22T06:40:20;24.00;;;13.17;;
4961;SDS011;2496;52.468;13.342;2024-03-22T06:42:46;23.83;;;13.70;;
4961;SDS011;2496;52.468;13.342;2024-03-22T06:45:13;22.97;;;13.40;;
4961;SDS011;2496;52.468;13.342;2024-03-22T06:47:40;21.30;;;12.23;;
4961;SDS011;2496;52.468;13.342;2024-03-22T06:50:07;20.87;;;14.50;;
4961;SDS011;2496;52.468;13.342;2024-03-22T06:52:34;22.40;;;13.20;;
4961;SDS011;2496;52.468;13.342;2024-03-22T06:55:01;25.13;;;13.57;;
4961;SDS011;2496;52.468;13.342;2024-03-22T06:57:28;22.73;;;13.30;;
4961;SDS011;2496;52.468;13.342;2024-03-22T06:59:55;23.13;;;14.10;;
4961;SDS011;2496;52.468;13.342;2024-03-22T07:02:21;23.67;;;14.03;;
4961;SDS011;2496;52.468;13.342;2024-03-22T07:04:48;23.20;;;14.20;;
4961;SDS011;2496;52.468;13.342;2024-03-22T07:07:14;26.07;;;12.90;;
4961;SDS011;2496;52.468;13.342;2024-03-22T07:09:40;27.63;;;14.20;;
4961;SDS011;2496;52.468;13.342;2024-03-22T07:12:08;25.40;;;13.57;;
4961;SDS011;2496;52.468;13.342;2024-03-22T07:14:36;27.33;;;14.10;;
4961;SDS011;2496;52.468;13.342;2024-03-22T07:17:02;23.53;;;14.30;;
4961;SDS011;2496;52.468;13.342;2024-03-22T07:19:30;23.80;;;14.33;;
4961;SDS011;2496;52.468;13.342;2024-03-22T07:21:56;27.67;;;16.60;;
4961;SDS011;2496;52.468;13.342;2024-03-22T07:24:24;31.87;;;15.00;;
4961;SDS011;2496;52.468;13.342;2024-03-22T07:26:50;30.47;;;15.30;;
4961;SDS011;2496;52.468;13.342;2024-03-22T07:29:18;32.10;;;15.87;;
4961;SDS011;2496;52.468;13.342;2024-03-22T07:31:46;26.60;;;14.57;;
4961;SDS011;2496;52.468;13.342;2024-03-22T07:34:13;35.43;;;15.33;;
4961;SDS011;2496;52.468;13.342;2024-03-22T07:36:39;29.20;;;16.80;;
4961;SDS011;2496;52.468;13.342;2024-03-22T07:39:06;26.47;;;16.87;;
4961;SDS011;2496;52.468;13.342;2024-03-22T07:41:32;25.73;;;16.07;;
4961;SDS011;2496;52.468;13.342;2024-03-22T07:44:00;32.07;;;17.07;;
4961;SDS011;2496;52.468;13.342;2024-03-22T07:46:26;25.50;;;15.93;;
4961;SDS011;2496;52.468;13.342;2024-03-22T07:48:54;30.00;;;16.73;;
4961;SDS011;2496;52.468;13.342;2024-03-22T07:51:20;29.43;;;16.60;;
4961;SDS011;2496;52.468;13.342;2024-03-22T07:53:47;29.97;;;17.10;;
4961;SDS011;2496;52.468;13.342;2024-03-22T07:56:13;26.40;;;16.03;;
4961;SDS011;2496;52.468;13.342;2024-03-22T07:58:40;30.77;;;15.33;;
4961;SDS011;2496;52.468;13.342;2024-03-22T08:01:08;23.87;;;15.70;;
4961;SDS011;2496;52.468;13.342;2024-03-22T08:03:35;28.80;;;16.00;;
4961;SDS011;2496;52.468;13.342;2024-03-22T08:06:03;27.80;;;17.10;;
4961;SDS011;2496;52.468;13.342;2024-03-22T08:08:30;32.10;;;18.20;;
4961;SDS011;2496;52.468;13.342;2024-03-22T08:10:56;35.03;;;17.97;;
4961;SDS011;2496;52.468;13.342;2024-03-22T08:13:23;38.20;;;17.47;;
4961;SDS011;2496;52.468;13.342;2024-03-22T08:15:49;28.90;;;17.30;;
4961;SDS011;2496;52.468;13.342;2024-03-22T08:18:16;30.20;;;18.53;;
4961;SDS011;2496;52.468;13.342;2024-03-22T08:20:42;34.60;;;17.40;;
4961;SDS011;2496;52.468;13.342;2024-03-22T08:23:10;30.77;;;17.63;;
4961;SDS011;2496;52.468;13.342;2024-03-22T08:25:36;27.30;;;17.10;;
4961;SDS011;2496;52.468;13.342;2024-03-22T08:28:04;34.60;;;19.77;;
4961;SDS011;2496;52.468;13.342;2024-03-22T08:30:30;34.20;;;18.00;;
4961;SDS011;2496;52.468;13.342;2024-03-22T08:32:57;31.30;;;17.50;;
4961;SDS011;2496;52.468;13.342;2024-03-22T08:35:23;28.83;;;17.03;;
4961;SDS011;2496;52.468;13.342;2024-03-22T08:37:50;26.00;;;15.10;;
4961;SDS011;2496;52.468;13.342;2024-03-22T08:40:17;30.83;;;16.43;;
4961;SDS011;2496;52.468;13.342;2024-03-22T08:42:44;30.93;;;16.73;;
4961;SDS011;2496;52.468;13.342;2024-03-22T08:45:10;28.60;;;16.27;;
4961;SDS011;2496;52.468;13.342;2024-03-22T08:47:36;28.90;;;18.27;;
4961;SDS011;2496;52.468;13.342;2024-03-22T08:50:03;30.30;;;16.60;;
4961;SDS011;2496;52.468;13.342;2024-03-22T08:52:30;31.80;;;17.13;;
4961;SDS011;2496;52.468;13.342;2024-03-22T08:54:57;28.63;;;16.57;;
4961;SDS011;2496;52.468;13.342;2024-03-22T08:57:25;29.33;;;17.10;;
4961;SDS011;2496;52.468;13.342;2024-03-22T08:59:51;31.63;;;16.83;;
4961;SDS011;2496;52.468;13.342;2024-03-22T09:02:18;25.60;;;15.60;;
4961;SDS011;2496;52.468;13.342;2024-03-22T09:04:44;36.97;;;18.00;;
4961;SDS011;2496;52.468;13.342;2024-03-22T09:07:12;29.63;;;17.03;;
4961;SDS011;2496;52.468;13.342;2024-03-22T09:09:37;27.83;;;17.07;;
4961;SDS011;2496;52.468;13.342;2024-03-22T09:12:05;26.70;;;16.17;;
4961;SDS011;2496;52.468;13.342;2024-03-22T09:14:33;24.47;;;16.00;;
4961;SDS011;2496;52.468;13.342;2024-03-22T09:17:00;28.40;;;16.77;;
4961;SDS011;2496;52.468;13.342;2024-03-22T09:19:26;30.07;;;16.63;;
4961;SDS011;2496;52.468;13.342;2024-03-22T09:21:53;24.70;;;15.73;;
4961;SDS011;2496;52.468;13.342;2024-03-22T09:24:19;30.27;;;17.23;;
4961;SDS011;2496;52.468;13.342;2024-03-22T09:26:46;28.30;;;15.63;;
4961;SDS011;2496;52.468;13.342;2024-03-22T09:29:12;27.90;;;17.23;;
4961;SDS011;2496;52.468;13.342;2024-03-22T09:31:41;26.60;;;16.20;;
4961;SDS011;2496;52.468;13.342;2024-03-22T09:34:08;27.20;;;15.80;;
4961;SDS011;2496;52.468;13.342;2024-03-22T09:36:34;28.10;;;16.07;;
4961;SDS011;2496;52.468;13.342;2024-03-22T09:39:01;24.80;;;15.13;;
4961;SDS011;2496;52.468;13.342;2024-03-22T09:41:27;25.20;;;15.60;;
4961;SDS011;2496;52.468;13.342;2024-03-22T09:43:57;30.37;;;15.60;;
4961;SDS011;2496;52.468;13.342;2024-03-22T09:46:25;28.30;;;15.73;;
4961;SDS011;2496;52.468;13.342;2024-03-22T09:48:54;21.73;;;14.60;;
4961;SDS011;2496;52.468;13.342;2024-03-22T09:51:22;28.20;;;15.90;;
4961;SDS011;2496;52.468;13.342;2024-03-22T09:53:50;26.23;;;16.33;;
4961;SDS011;2496;52.468;13.342;2024-03-22T09:56:18;29.50;;;15.50;;
4961;SDS011;2496;52.468;13.342;2024-03-22T09:58:47;26.20;;;15.17;;
4961;SDS011;2496;52.468;13.342;2024-03-22T10:01:13;26.13;;;16.93;;
4961;SDS011;2496;52.468;13.342;2024-03-22T10:03:40;23.60;;;15.20;;
4961;SDS011;2496;52.468;13.342;2024-03-22T10:06:08;24.67;;;14.83;;
4961;SDS011;2496;52.468;13.342;2024-03-22T10:08:35;22.90;;;14.93;;
4961;SDS011;2496;52.468;13.342;2024-03-22T10:11:01;24.53;;;16.50;;
4961;SDS011;2496;52.468;13.342;2024-03-22T10:13:29;25.43;;;15.53;;
4961;SDS011;2496;52.468;13.342;2024-03-22T10:15:56;26.73;;;16.13;;
4961;SDS011;2496;52.468;13.342;2024-03-22T10:18:23;32.27;;;14.77;;
4961;SDS011;2496;52.468;13.342;2024-03-22T10:20:58;27.17;;;14.03;;
4961;SDS011;2496;52.468;13.342;2024-03-22T10:23:27;23.60;;;15.20;;
4961;SDS011;2496;52.468;13.342;2024-03-22T10:25:53;28.73;;;14.80;;
4961;SDS011;2496;52.468;13.342;2024-03-22T10:28:23;30.20;;;17.40;;
4961;SDS011;2496;52.468;13.342;2024-03-22T10:30:50;27.40;;;14.23;;
4961;SDS011;2496;52.468;13.342;2024-03-22T10:33:18;25.00;;;15.33;;
4961;SDS011;2496;52.468;13.342;2024-03-22T10:35:44;23.00;;;14.80;;
4961;SDS011;2496;52.468;13.342;2024-03-22T10:38:12;26.50;;;14.40;;
4961;SDS011;2496;52.468;13.342;2024-03-22T10:40:41;23.40;;;14.70;;
4961;SDS011;2496;52.468;13.342;2024-03-22T10:43:11;26.97;;;16.30;;
4961;SDS011;2496;52.468;13.342;2024-03-22T10:45:38;24.53;;;14.70;;
4961;SDS011;2496;52.468;13.342;2024-03-22T10:48:08;27.33;;;14.30;;
4961;SDS011;2496;52.468;13.342;2024-03-22T10:50:35;21.07;;;13.60;;
4961;SDS011;2496;52.468;13.342;2024-03-22T10:53:06;21.40;;;14.00;;
4961;SDS011;2496;52.468;13.342;2024-03-22T10:55:34;22.37;;;14.67;;
4961;SDS011;2496;52.468;13.342;2024-03-22T10:58:05;26.47;;;14.30;;
4961;SDS011;2496;52.468;13.342;2024-03-22T11:00:32;24.43;;;15.50;;
4961;SDS011;2496;52.468;13.342;2024-03-22T11:03:01;22.43;;;14.47;;
4961;SDS011;2496;52.468;13.342;2024-03-22T11:05:27;27.47;;;14.40;;
4961;SDS011;2496;52.468;13.342;2024-03-22T11:07:58;19.43;;;13.30;;
4961;SDS011;2496;52.468;13.342;2024-03-22T11:10:25;23.80;;;13.80;;
4961;SDS011;2496;52.468;13.342;2024-03-22T11:13:00;21.03;;;14.00;;
4961;SDS011;2496;52.468;13.342;2024-03-22T11:15:29;20.43;;;12.97;;
4961;SDS011;2496;52.468;13.342;2024-03-22T11:17:56;23.03;;;14.23;;
4961;SDS011;2496;52.468;13.342;2024-03-22T11:20:22;23.53;;;13.73;;
4961;SDS011;2496;52.468;13.342;2024-03-22T11:22:50;19.93;;;12.97;;
4961;SDS011;2496;52.468;13.342;2024-03-22T11:25:17;24.13;;;13.27;;
4961;SDS011;2496;52.468;13.342;2024-03-22T11:27:44;21.53;;;14.03;;
4961;SDS011;2496;52.468;13.342;2024-03-22T11:30:10;17.40;;;11.50;;
4961;SDS011;2496;52.468;13.342;2024-03-22T11:32:39;22.50;;;13.97;;
4961;SDS011;2496;52.468;13.342;2024-03-22T11:35:09;24.40;;;13.60;;
4961;SDS011;2496;52.468;13.342;2024-03-22T11:37:36;25.33;;;13.70;;
4961;SDS011;2496;52.468;13.342;2024-03-22T11:40:03;18.87;;;11.80;;
4961;SDS011;2496;52.468;13.342;2024-03-22T11:42:31;21.40;;;12.80;;
4961;SDS011;2496;52.468;13.342;2024-03-22T11:44:58;29.47;;;16.30;;
4961;SDS011;2496;52.468;13.342;2024-03-22T11:47:25;20.40;;;12.73;;
4961;SDS011;2496;52.468;13.342;2024-03-22T11:49:53;18.70;;;11.03;;
4961;SDS011;2496;52.468;13.342;2024-03-22T11:52:23;19.90;;;12.70;;
4961;SDS011;2496;52.468;13.342;2024-03-22T11:54:50;21.57;;;11.90;;
4961;SDS011;2496;52.468;13.342;2024-03-22T11:57:18;23.07;;;14.00;;
4961;SDS011;2496;52.468;13.342;2024-03-22T11:59:45;30.23;;;13.03;;
4961;SDS011;2496;52.468;13.342;2024-03-22T12:02:12;26.10;;;12.80;;
4961;SDS011;2496;52.468;13.342;2024-03-22T12:04:40;23.03;;;13.37;;
4961;SDS011;2496;52.468;13.342;2024-03-22T12:07:10;21.60;;;12.73;;
4961;SDS011;2496;52.468;13.342;2024-03-22T12:09:38;22.37;;;13.73;;
4961;SDS011;2496;52.468;13.342;2024-03-22T12:12:06;25.03;;;14.80;;
4961;SDS011;2496;52.468;13.342;2024-03-22T12:14:34;32.27;;;14.60;;
4961;SDS011;2496;52.468;13.342;2024-03-22T12:17:01;26.63;;;14.27;;
4961;SDS011;2496;52.468;13.342;2024-03-22T12:19:27;23.33;;;14.77;;
4961;SDS011;2496;52.468;13.342;2024-03-22T12:21:54;27.97;;;14.10;;
4961;SDS011;2496;52.468;13.342;2024-03-22T12:24:21;22.90;;;14.27;;
4961;SDS011;2496;52.468;13.342;2024-03-22T12:26:49;25.00;;;13.50;;
4961;SDS011;2496;52.468;13.342;2024-03-22T12:29:15;23.90;;;15.27;;
4961;SDS011;2496;52.468;13.342;2024-03-22T12:31:43;25.83;;;14.93;;
4961;SDS011;2496;52.468;13.342;2024-03-22T12:34:09;23.53;;;14.90;;
4961;SDS011;2496;52.468;13.342;2024-03-22T12:36:37;24.53;;;14.40;;
4961;SDS011;2496;52.468;13.342;2024-03-22T12:39:04;27.33;;;16.13;;
4961;SDS011;2496;52.468;13.342;2024-03-22T12:41:33;23.47;;;14.53;;
4961;SDS011;2496;52.468;13.342;2024-03-22T12:43:59;26.73;;;15.27;;
4961;SDS011;2496;52.468;13.342;2024-03-22T12:46:26;27.10;;;16.47;;
4961;SDS011;2496;52.468;13.342;2024-03-22T12:48:53;32.50;;;16.10;;
4961;SDS011;2496;52.468;13.342;2024-03-22T12:51:20;31.37;;;17.63;;
4961;SDS011;2496;52.468;13.342;2024-03-22T12:53:46;27.20;;;15.90;;
4961;SDS011;2496;52.468;13.342;2024-03-22T12:56:14;28.70;;;15.27;;
4961;SDS011;2496;52.468;13.342;2024-03-22T12:58:41;33.50;;;16.80;;
4961;SDS011;2496;52.468;13.342;2024-03-22T13:01:08;29.67;;;15.90;;
4961;SDS011;2496;52.468;13.342;2024-03-22T13:03:35;26.33;;;14.53;;
4961;SDS011;2496;52.468;13.342;2024-03-22T13:06:03;25.27;;;14.00;;
4961;SDS011;2496;52.468;13.342;2024-03-22T13:08:30;31.33;;;15.10;;
4961;SDS011;2496;52.468;13.342;2024-03-22T13:10:57;24.20;;;14.50;;
4961;SDS011;2496;52.468;13.342;2024-03-22T13:13:23;28.80;;;15.97;;
4961;SDS011;2496;52.468;13.342;2024-03-22T13:15:51;30.23;;;15.77;;
4961;SDS011;2496;52.468;13.342;2024-03-22T13:18:17;26.40;;;14.40;;
4961;SDS011;2496;52.468;13.342;2024-03-22T13:20:46;24.77;;;14.27;;
4961;SDS011;2496;52.468;13.342;2024-03-22T13:23:12;27.10;;;14.13;;
4961;SDS011;2496;52.468;13.342;2024-03-22T13:25:39;26.73;;;14.93;;
4961;SDS011;2496;52.468;13.342;2024-03-22T13:28:05;24.90;;;15.20;;
4961;SDS011;2496;52.468;13.342;2024-03-22T13:30:32;23.53;;;13.50;;
4961;SDS011;2496;52.468;13.342;2024-03-22T13:33:01;25.10;;;13.73;;
4961;SDS011;2496;52.468;13.342;2024-03-22T13:35:28;23.90;;;13.67;;
4961;SDS011;2496;52.468;13.342;2024-03-22T13:37:54;28.80;;;14.30;;
4961;SDS011;2496;52.468;13.342;2024-03-22T13:40:21;22.10;;;12.90;;
4961;SDS011;2496;52.468;13.342;2024-03-22T13:42:47;21.23;;;13.27;;
4961;SDS011;2496;52.468;13.342;2024-03-22T13:45:14;24.67;;;13.17;;
4961;SDS011;2496;52.468;13.342;2024-03-22T13:47:40;20.97;;;12.97;;
4961;SDS011;2496;52.468;13.342;2024-03-22T13:50:09;27.13;;;15.93;;
4961;SDS011;2496;52.468;13.342;2024-03-22T13:52:35;27.90;;;15.07;;
4961;SDS011;2496;52.468;13.342;2024-03-22T13:55:01;28.23;;;15.73;;
4961;SDS011;2496;52.468;13.342;2024-03-22T13:57:28;28.30;;;15.57;;
4961;SDS011;2496;52.468;13.342;2024-03-22T13:59:55;28.53;;;16.27;;
4961;SDS011;2496;52.468;13.342;2024-03-22T14:02:21;28.63;;;16.10;;
4961;SDS011;2496;52.468;13.342;2024-03-22T14:04:48;24.70;;;15.47;;
4961;SDS011;2496;52.468;13.342;2024-03-22T14:07:15;24.47;;;14.63;;
4961;SDS011;2496;52.468;13.342;2024-03-22T14:09:42;29.97;;;17.50;;
4961;SDS011;2496;52.468;13.342;2024-03-22T14:12:08;32.23;;;16.17;;
4961;SDS011;2496;52.468;13.342;2024-03-22T14:14:35;30.13;;;17.73;;
4961;SDS011;2496;52.468;13.342;2024-03-22T14:17:01;36.93;;;17.30;;
4961;SDS011;2496;52.468;13.342;2024-03-22T14:19:28;28.23;;;14.47;;
4961;SDS011;2496;52.468;13.342;2024-03-22T14:21:55;30.70;;;17.13;;
4961;SDS011;2496;52.468;13.342;2024-03-22T14:24:24;34.20;;;17.27;;
4961;SDS011;2496;52.468;13.342;2024-03-22T14:26:50;30.60;;;18.07;;
4961;SDS011;2496;52.468;13.342;2024-03-22T14:29:17;31.30;;;16.60;;
4961;SDS011;2496;52.468;13.342;2024-03-22T14:31:44;32.37;;;17.13;;
4961;SDS011;2496;52.468;13.342;2024-03-22T14:34:11;30.93;;;17.13;;